25 Max
18 km/h
11 Mini

LFMY 061000Z AUTO 20010KT 170V230 CAVOK 19/03 Q1025 NOSIG

TAF LFMY 060800Z 0609/0709 04003KT CAVOK BECMG 0610/0612 20012KT BECMG 0617/0619 VRB02KT